createdAt,value
2022-10-28T00:00:31.788Z,10.10
2022-10-28T00:03:02.888Z,10.10
2022-10-28T00:05:33.815Z,10.10
2022-10-28T00:08:00.645Z,10.10
2022-10-28T00:10:27.407Z,10.00
2022-10-28T00:12:54.514Z,10.00
2022-10-28T00:15:21.421Z,10.00
2022-10-28T00:17:48.202Z,10.00
2022-10-28T00:20:16.101Z,10.00
2022-10-28T00:22:43.044Z,10.00
2022-10-28T00:25:10.165Z,10.00
2022-10-28T00:27:37.035Z,10.00
2022-10-28T00:30:04.011Z,10.10
2022-10-28T00:32:31.399Z,10.00
2022-10-28T00:34:58.589Z,10.10
2022-10-28T00:37:25.376Z,10.10
2022-10-28T00:39:52.234Z,10.10
2022-10-28T00:42:21.232Z,10.10
2022-10-28T00:44:54.345Z,10.20
2022-10-28T00:47:24.106Z,10.20
2022-10-28T00:49:52.140Z,10.20
2022-10-28T00:52:20.205Z,10.20
2022-10-28T00:54:47.525Z,10.20
2022-10-28T00:57:18.535Z,10.20
2022-10-28T00:59:47.214Z,10.10
2022-10-28T01:02:14.380Z,10.10
2022-10-28T01:04:41.737Z,10.10
2022-10-28T01:07:08.675Z,10.20
2022-10-28T01:09:35.443Z,10.10
2022-10-28T01:12:22.244Z,10.10
2022-10-28T01:15:01.395Z,10.10
2022-10-28T01:17:49.157Z,10.10
2022-10-28T01:20:37.726Z,10.10
2022-10-28T01:23:07.709Z,10.10
2022-10-28T01:25:49.756Z,10.10
2022-10-28T01:28:25.670Z,10.20
2022-10-28T01:31:10.947Z,10.20
2022-10-28T01:33:43.767Z,10.20
2022-10-28T01:36:15.452Z,10.20
2022-10-28T01:38:48.732Z,10.30
2022-10-28T01:41:25.276Z,10.30
2022-10-28T01:44:01.911Z,10.40
2022-10-28T01:46:31.922Z,10.30
2022-10-28T01:49:08.733Z,10.40
2022-10-28T01:51:38.185Z,10.40
2022-10-28T01:54:07.271Z,10.40
2022-10-28T01:56:36.100Z,10.40
2022-10-28T01:59:04.529Z,10.50
2022-10-28T02:01:31.739Z,10.50
2022-10-28T02:03:58.831Z,10.50
2022-10-28T02:06:28.517Z,10.50
2022-10-28T02:09:13.993Z,10.50
2022-10-28T02:11:59.431Z,10.50
2022-10-28T02:14:33.032Z,10.60
2022-10-28T02:17:21.287Z,10.60
2022-10-28T02:19:51.051Z,10.60
2022-10-28T02:22:30.062Z,10.50
2022-10-28T02:25:05.115Z,10.50
2022-10-28T02:27:36.344Z,10.50
2022-10-28T02:30:13.118Z,10.50
2022-10-28T02:32:41.510Z,10.50
2022-10-28T02:35:12.418Z,10.50
2022-10-28T02:37:40.732Z,10.60
2022-10-28T02:40:12.487Z,10.60
2022-10-28T02:42:46.971Z,10.50
2022-10-28T02:45:16.278Z,10.60
2022-10-28T02:47:46.111Z,10.60
2022-10-28T02:50:16.223Z,10.50
2022-10-28T02:52:44.553Z,10.60
2022-10-28T02:55:11.450Z,10.50
2022-10-28T02:57:40.721Z,10.60
2022-10-28T03:00:09.592Z,10.60
2022-10-28T03:02:36.611Z,10.60
2022-10-28T03:05:05.426Z,10.60
2022-10-28T03:07:32.337Z,10.60
2022-10-28T03:09:59.156Z,10.70
2022-10-28T03:12:25.939Z,10.60
2022-10-28T03:14:52.762Z,10.70
2022-10-28T03:17:19.603Z,10.70
2022-10-28T03:19:46.461Z,10.70
2022-10-28T03:22:13.306Z,10.70
2022-10-28T03:24:40.120Z,10.70
2022-10-28T03:27:06.885Z,10.70
2022-10-28T03:29:33.798Z,10.80
2022-10-28T03:32:00.571Z,10.80
2022-10-28T03:34:27.357Z,10.80
2022-10-28T03:36:54.149Z,10.80
2022-10-28T03:39:20.940Z,10.90
2022-10-28T03:41:47.726Z,10.90
2022-10-28T03:44:14.635Z,11.00
2022-10-28T03:46:41.475Z,10.90
2022-10-28T03:49:08.310Z,10.90
2022-10-28T03:51:35.134Z,10.90
2022-10-28T03:54:02.011Z,11.00
2022-10-28T03:56:28.779Z,11.00
2022-10-28T03:58:55.534Z,10.90
2022-10-28T04:01:22.687Z,10.90
2022-10-28T04:03:49.492Z,11.00
2022-10-28T04:06:17.009Z,11.00
2022-10-28T04:08:43.930Z,11.00
2022-10-28T04:11:10.893Z,11.00
2022-10-28T04:13:37.805Z,10.90
2022-10-28T04:16:04.898Z,11.00
2022-10-28T04:18:32.030Z,11.00
2022-10-28T04:20:58.836Z,11.00
2022-10-28T04:23:25.628Z,10.90
2022-10-28T04:25:55.895Z,10.90
2022-10-28T04:28:24.441Z,10.90
2022-10-28T04:30:51.252Z,10.90
2022-10-28T04:33:18.248Z,10.90
2022-10-28T04:35:45.120Z,10.90
2022-10-28T04:38:12.825Z,10.90
2022-10-28T04:40:39.989Z,10.90
2022-10-28T04:43:09.709Z,10.90
2022-10-28T04:45:37.916Z,10.90
2022-10-28T04:48:04.966Z,10.90
2022-10-28T04:50:32.462Z,10.90
2022-10-28T04:52:59.203Z,10.90
2022-10-28T04:55:26.091Z,10.90
2022-10-28T04:57:53.730Z,10.90
2022-10-28T05:00:20.654Z,10.90
2022-10-28T05:02:47.568Z,10.90
2022-10-28T05:05:14.654Z,10.90
2022-10-28T05:07:41.500Z,10.90
2022-10-28T05:10:08.498Z,10.90
2022-10-28T05:12:35.250Z,11.00
2022-10-28T05:15:02.065Z,10.90
2022-10-28T05:17:29.052Z,10.90
2022-10-28T05:19:55.907Z,10.90
2022-10-28T05:22:22.819Z,10.90
2022-10-28T05:24:49.630Z,11.00
2022-10-28T05:27:16.548Z,11.00
2022-10-28T05:29:43.314Z,11.00
2022-10-28T05:32:10.109Z,11.00
2022-10-28T05:34:36.953Z,11.00
2022-10-28T05:37:03.765Z,11.00
2022-10-28T05:39:30.575Z,11.00
2022-10-28T05:41:57.337Z,11.00
2022-10-28T05:44:24.162Z,11.00
2022-10-28T05:46:50.952Z,10.90
2022-10-28T05:49:20.495Z,10.90
2022-10-28T05:51:47.340Z,10.90
2022-10-28T05:54:14.178Z,10.90
2022-10-28T05:56:40.985Z,11.00
2022-10-28T05:59:07.769Z,11.00
2022-10-28T06:01:34.626Z,11.00
2022-10-28T06:04:01.651Z,11.00
2022-10-28T06:06:28.808Z,10.90
2022-10-28T06:08:55.617Z,10.90
2022-10-28T06:11:20.851Z,10.80
2022-10-28T06:13:47.656Z,10.90
2022-10-28T06:16:14.569Z,10.90
2022-10-28T06:18:41.339Z,10.90
2022-10-28T06:21:08.186Z,10.90
2022-10-28T06:23:34.949Z,10.90
2022-10-28T06:26:03.457Z,10.90
2022-10-28T06:28:30.363Z,10.90
2022-10-28T06:31:01.591Z,10.90
2022-10-28T06:33:28.358Z,10.90
2022-10-28T06:35:55.814Z,10.90
2022-10-28T06:38:23.303Z,10.90
2022-10-28T06:40:52.448Z,10.90
2022-10-28T06:43:19.549Z,11.00
2022-10-28T06:45:46.952Z,10.90
2022-10-28T06:48:15.266Z,11.00
2022-10-28T06:50:42.240Z,10.90
2022-10-28T06:53:09.208Z,10.90
2022-10-28T06:55:36.024Z,10.90
2022-10-28T06:58:03.701Z,10.90
2022-10-28T07:00:33.798Z,11.00
2022-10-28T07:03:01.052Z,11.00
2022-10-28T07:05:28.351Z,11.00
2022-10-28T07:07:55.682Z,11.00
2022-10-28T07:10:22.871Z,11.00
2022-10-28T07:12:49.763Z,11.00
2022-10-28T07:15:16.585Z,11.10
2022-10-28T07:17:43.419Z,11.10
2022-10-28T07:20:10.604Z,11.10
2022-10-28T07:22:37.445Z,11.10
2022-10-28T07:25:04.382Z,11.10
2022-10-28T07:27:31.418Z,11.10
2022-10-28T07:29:58.238Z,11.10
2022-10-28T07:32:24.990Z,11.10
2022-10-28T07:34:51.765Z,11.20
2022-10-28T07:37:18.709Z,11.10
2022-10-28T07:39:45.533Z,11.20
2022-10-28T07:42:12.557Z,11.20
2022-10-28T07:44:39.635Z,11.20
2022-10-28T07:47:07.746Z,11.20
2022-10-28T07:49:34.539Z,11.20
2022-10-28T07:52:01.322Z,11.20
2022-10-28T07:54:29.084Z,11.20
2022-10-28T07:56:55.831Z,11.20
2022-10-28T07:59:26.714Z,11.20
2022-10-28T08:01:54.251Z,11.30
2022-10-28T08:04:21.113Z,11.30
2022-10-28T08:06:48.056Z,11.30
2022-10-28T08:09:16.154Z,11.30
2022-10-28T08:11:43.030Z,11.30
2022-10-28T08:14:09.855Z,11.40
2022-10-28T08:16:36.746Z,11.40
2022-10-28T08:19:07.466Z,11.40
2022-10-28T08:21:34.596Z,11.40
2022-10-28T08:24:01.454Z,11.50
2022-10-28T08:26:28.386Z,11.50
2022-10-28T08:28:55.185Z,11.50
2022-10-28T08:31:22.097Z,11.60
2022-10-28T08:33:48.863Z,11.60
2022-10-28T08:36:16.693Z,11.60
2022-10-28T08:38:45.795Z,11.60
2022-10-28T08:41:31.138Z,11.70
2022-10-28T08:44:07.252Z,11.70
2022-10-28T08:46:49.272Z,11.80
2022-10-28T08:49:17.777Z,11.80
2022-10-28T08:51:57.601Z,11.80
2022-10-28T08:54:27.268Z,11.80
2022-10-28T08:56:56.229Z,11.80
2022-10-28T08:59:27.408Z,11.90
2022-10-28T09:01:57.313Z,11.90
2022-10-28T09:04:39.431Z,11.90
2022-10-28T09:07:09.420Z,11.90
2022-10-28T09:09:36.315Z,12.00
2022-10-28T09:12:03.122Z,12.00
2022-10-28T09:14:37.656Z,12.00
2022-10-28T09:17:12.596Z,12.00
2022-10-28T09:20:02.352Z,12.10
2022-10-28T09:22:30.887Z,12.10
2022-10-28T09:24:57.837Z,12.10
2022-10-28T09:27:30.660Z,12.10
2022-10-28T09:30:16.162Z,12.10
2022-10-28T09:32:55.368Z,12.10
2022-10-28T09:35:24.963Z,12.10
2022-10-28T09:38:07.213Z,12.20
2022-10-28T09:40:35.121Z,12.20
2022-10-28T09:43:07.188Z,12.20
2022-10-28T09:45:36.089Z,12.20
2022-10-28T09:48:11.128Z,12.30
2022-10-28T09:50:38.597Z,12.30
2022-10-28T09:53:15.232Z,12.40
2022-10-28T09:55:42.078Z,12.40
2022-10-28T09:58:10.202Z,12.40
2022-10-28T10:00:37.413Z,12.50
2022-10-28T10:03:04.459Z,12.50
2022-10-28T10:05:32.635Z,12.50
2022-10-28T10:08:03.427Z,12.60
2022-10-28T10:10:50.251Z,12.60
2022-10-28T10:13:20.069Z,12.60
2022-10-28T10:15:49.388Z,12.80
2022-10-28T10:18:18.645Z,12.80
2022-10-28T10:20:48.081Z,12.80
2022-10-28T10:23:41.405Z,12.80
2022-10-28T10:26:11.313Z,12.80
2022-10-28T10:28:43.138Z,12.90
2022-10-28T10:31:16.819Z,12.80
2022-10-28T10:33:43.589Z,12.90
2022-10-28T10:36:10.378Z,12.90
2022-10-28T10:38:38.314Z,12.90
2022-10-28T10:41:05.202Z,13.00
2022-10-28T10:43:35.953Z,13.00
2022-10-28T10:46:03.100Z,13.10
2022-10-28T10:48:32.408Z,13.10
2022-10-28T10:51:05.198Z,13.10
2022-10-28T10:53:32.690Z,13.00
2022-10-28T10:56:06.080Z,13.10
2022-10-28T10:58:34.802Z,13.10
2022-10-28T11:01:03.280Z,13.10
2022-10-28T11:03:38.854Z,13.10
2022-10-28T11:06:24.327Z,13.10
2022-10-28T11:08:55.598Z,13.20
2022-10-28T11:11:22.633Z,13.20
2022-10-28T11:14:01.944Z,13.20
2022-10-28T11:16:28.716Z,13.30
2022-10-28T11:18:55.553Z,13.30
2022-10-28T11:21:28.791Z,13.30
2022-10-28T11:24:07.299Z,13.30
2022-10-28T11:26:37.719Z,13.30
2022-10-28T11:29:07.738Z,13.40
2022-10-28T11:31:46.284Z,13.40
2022-10-28T11:34:31.943Z,13.40
2022-10-28T11:36:58.829Z,13.40
2022-10-28T11:39:26.583Z,13.40
2022-10-28T11:42:00.796Z,13.40
2022-10-28T11:44:32.548Z,13.50
2022-10-28T11:47:17.956Z,13.50
2022-10-28T11:50:03.689Z,13.50
2022-10-28T11:52:49.537Z,13.50
2022-10-28T11:55:20.391Z,13.50
2022-10-28T11:57:47.241Z,13.50
2022-10-28T12:00:32.753Z,13.50
2022-10-28T12:03:11.776Z,13.60
2022-10-28T12:05:51.430Z,13.60
2022-10-28T12:08:18.201Z,13.60
2022-10-28T12:11:04.314Z,13.60
2022-10-28T12:13:37.097Z,13.70
2022-10-28T12:16:03.878Z,13.70
2022-10-28T12:18:42.260Z,13.80
2022-10-28T12:21:19.337Z,13.70
2022-10-28T12:23:46.714Z,13.70
2022-10-28T12:26:16.200Z,13.80
2022-10-28T12:28:42.943Z,13.80
2022-10-28T12:31:17.666Z,13.80
2022-10-28T12:33:46.315Z,13.80
2022-10-28T12:36:18.954Z,13.70
2022-10-28T12:38:50.102Z,13.80
2022-10-28T12:41:24.933Z,13.80
2022-10-28T12:43:54.550Z,13.80
2022-10-28T12:46:40.301Z,13.90
2022-10-28T12:49:16.687Z,13.90
2022-10-28T12:51:43.893Z,13.90
2022-10-28T12:54:11.773Z,13.90
2022-10-28T12:56:40.704Z,13.90
2022-10-28T12:59:13.638Z,14.00
2022-10-28T13:01:41.144Z,14.00
2022-10-28T13:04:11.294Z,14.00
2022-10-28T13:06:38.144Z,14.00
2022-10-28T13:09:37.823Z,14.10
2022-10-28T13:12:24.830Z,14.00
2022-10-28T13:15:00.670Z,14.10
2022-10-28T13:17:39.153Z,14.10
2022-10-28T13:20:11.902Z,14.10
2022-10-28T13:22:44.891Z,14.20
2022-10-28T13:25:26.238Z,14.20
2022-10-28T13:27:57.239Z,14.20
2022-10-28T13:30:24.797Z,14.20
2022-10-28T13:32:59.984Z,14.20
2022-10-28T13:35:27.844Z,14.20
2022-10-28T13:37:55.347Z,14.30
2022-10-28T13:40:31.333Z,14.30
2022-10-28T13:42:58.873Z,14.30
2022-10-28T13:45:44.109Z,14.30
2022-10-28T13:48:29.362Z,14.30
2022-10-28T13:51:11.785Z,14.30
2022-10-28T13:53:47.910Z,14.30
2022-10-28T13:56:32.861Z,14.30
2022-10-28T13:59:02.125Z,14.30
2022-10-28T14:01:56.411Z,14.20
2022-10-28T14:04:36.825Z,14.20
2022-10-28T14:07:09.469Z,14.30
2022-10-28T14:09:36.966Z,14.20
2022-10-28T14:12:17.549Z,14.20
2022-10-28T14:15:04.588Z,14.30
2022-10-28T14:17:41.849Z,14.30
2022-10-28T14:20:21.296Z,14.30
2022-10-28T14:22:48.418Z,14.30
2022-10-28T14:25:33.716Z,14.30
2022-10-28T14:28:00.607Z,14.40
2022-10-28T14:30:27.560Z,14.40
2022-10-28T14:33:01.047Z,14.40
2022-10-28T14:35:39.774Z,14.40
2022-10-28T14:38:25.491Z,14.40
2022-10-28T14:40:56.298Z,14.30
2022-10-28T14:43:32.210Z,14.30
2022-10-28T14:46:08.062Z,14.30
2022-10-28T14:48:37.761Z,14.30
2022-10-28T14:51:05.223Z,14.30
2022-10-28T14:53:33.617Z,14.30
2022-10-28T14:56:04.296Z,14.30
2022-10-28T14:58:35.296Z,14.20
2022-10-28T15:01:09.654Z,14.30
2022-10-28T15:03:36.695Z,14.30
2022-10-28T15:06:19.548Z,14.30
2022-10-28T15:08:46.465Z,14.20
2022-10-28T15:11:15.937Z,14.30
2022-10-28T15:13:42.902Z,14.30
2022-10-28T15:16:19.030Z,14.30
2022-10-28T15:18:50.684Z,14.30
2022-10-28T15:21:19.134Z,14.30
2022-10-28T15:23:57.712Z,14.30
2022-10-28T15:26:24.832Z,14.30
2022-10-28T15:28:51.694Z,14.30
2022-10-28T15:31:18.516Z,14.30
2022-10-28T15:33:45.826Z,14.30
2022-10-28T15:36:18.363Z,14.30
2022-10-28T15:38:46.652Z,14.30
2022-10-28T15:41:36.079Z,14.30
2022-10-28T15:44:03.485Z,14.30
2022-10-28T15:46:32.072Z,14.30
2022-10-28T15:49:00.258Z,14.30
2022-10-28T15:51:27.715Z,14.30
2022-10-28T15:54:05.039Z,14.30
2022-10-28T15:56:32.097Z,14.30
2022-10-28T15:58:58.906Z,14.30
2022-10-28T16:01:31.267Z,14.30
2022-10-28T16:03:58.220Z,14.30
2022-10-28T16:06:26.526Z,14.30
2022-10-28T16:09:05.744Z,14.30
2022-10-28T16:11:36.558Z,14.30
2022-10-28T16:14:06.028Z,14.30
2022-10-28T16:16:33.043Z,14.30
2022-10-28T16:19:07.323Z,14.30
2022-10-28T16:21:34.227Z,14.20
2022-10-28T16:24:01.049Z,14.20
2022-10-28T16:26:28.804Z,14.20
2022-10-28T16:28:56.359Z,14.20
2022-10-28T16:31:25.198Z,14.20
2022-10-28T16:33:52.242Z,14.20
2022-10-28T16:36:19.118Z,14.30
2022-10-28T16:38:45.981Z,14.30
2022-10-28T16:41:15.900Z,14.30
2022-10-28T16:43:43.044Z,14.40
2022-10-28T16:46:11.030Z,14.40
2022-10-28T16:48:39.329Z,14.30
2022-10-28T16:51:11.094Z,14.30
2022-10-28T16:53:39.019Z,14.30
2022-10-28T16:56:08.667Z,14.30
2022-10-28T16:58:42.411Z,14.30
2022-10-28T17:01:10.239Z,14.30
2022-10-28T17:03:37.341Z,14.30
2022-10-28T17:06:04.232Z,14.30
2022-10-28T17:09:00.591Z,14.30
2022-10-28T17:11:18.180Z,14.30
2022-10-28T17:13:45.086Z,14.30
2022-10-28T17:16:13.090Z,14.30
2022-10-28T17:18:40.406Z,14.30
2022-10-28T17:21:07.221Z,14.30
2022-10-28T17:23:34.029Z,14.30
2022-10-28T17:26:02.304Z,14.30
2022-10-28T17:28:29.431Z,14.30
2022-10-28T17:31:03.504Z,14.30
2022-10-28T17:33:30.410Z,14.30
2022-10-28T17:36:00.582Z,14.30
2022-10-28T17:38:27.474Z,14.40
2022-10-28T17:40:55.072Z,14.30
2022-10-28T17:43:22.238Z,14.20
2022-10-28T17:45:49.349Z,14.20
2022-10-28T17:48:16.245Z,14.10
2022-10-28T17:50:45.436Z,14.20
2022-10-28T17:53:12.355Z,14.20
2022-10-28T17:55:39.395Z,14.20
2022-10-28T17:58:06.240Z,14.20
2022-10-28T18:00:33.112Z,14.20
2022-10-28T18:03:00.330Z,14.20
2022-10-28T18:05:27.281Z,14.10
2022-10-28T18:07:55.253Z,14.10
2022-10-28T18:10:24.432Z,14.10
2022-10-28T18:12:52.282Z,14.10
2022-10-28T18:15:19.712Z,14.10
2022-10-28T18:17:50.365Z,14.10
2022-10-28T18:20:17.300Z,14.00
2022-10-28T18:22:44.062Z,14.00
2022-10-28T18:25:10.933Z,14.00
2022-10-28T18:27:38.451Z,14.00
2022-10-28T18:30:05.769Z,14.00
2022-10-28T18:32:33.796Z,14.00
2022-10-28T18:35:02.012Z,13.90
2022-10-28T18:37:28.974Z,14.00
2022-10-28T18:39:55.813Z,13.90
2022-10-28T18:42:22.633Z,13.90
2022-10-28T18:44:49.414Z,13.90
2022-10-28T18:47:16.265Z,13.90
2022-10-28T18:49:45.667Z,13.90
2022-10-28T19:11:37.856Z,13.80
2022-10-28T19:14:05.802Z,13.80
2022-10-28T19:16:33.925Z,13.80
2022-10-28T19:19:02.253Z,13.70
2022-10-28T19:21:29.499Z,13.70
2022-10-28T19:23:56.518Z,13.70
2022-10-28T19:32:13.551Z,13.80
2022-10-28T19:34:40.457Z,13.70
2022-10-28T19:42:59.261Z,13.60
2022-10-28T19:45:26.114Z,13.60
2022-10-28T19:47:53.756Z,13.60
2022-10-28T19:50:22.079Z,13.60
2022-10-28T19:52:48.850Z,13.60
2022-10-28T19:55:19.650Z,13.60
2022-10-28T19:57:52.904Z,13.60
2022-10-28T20:00:19.980Z,13.60
2022-10-28T20:02:49.501Z,13.60
2022-10-28T20:05:16.311Z,13.60
2022-10-28T20:07:44.803Z,13.50
2022-10-28T20:10:13.643Z,13.60
2022-10-28T20:12:42.180Z,13.50
2022-10-28T20:15:11.340Z,13.60
2022-10-28T20:17:38.088Z,13.50
2022-10-28T20:20:06.038Z,13.50
2022-10-28T20:22:32.989Z,13.50
2022-10-28T20:25:01.919Z,13.50
2022-10-28T20:27:30.533Z,13.50
2022-10-28T20:29:59.791Z,13.50
2022-10-28T20:32:26.961Z,13.50
2022-10-28T20:34:53.780Z,13.50
2022-10-28T20:37:20.837Z,13.50
2022-10-28T20:39:48.086Z,13.50
2022-10-28T20:42:15.106Z,13.50
2022-10-28T20:44:43.597Z,13.50
2022-10-28T20:47:10.810Z,13.50
2022-10-28T20:49:39.262Z,13.50
2022-10-28T20:52:06.839Z,13.50
2022-10-28T20:54:33.648Z,13.50
2022-10-28T20:57:00.661Z,13.50
2022-10-28T20:59:27.589Z,13.50
2022-10-28T21:01:55.029Z,13.50
2022-10-28T21:04:22.145Z,13.50
2022-10-28T21:06:49.745Z,13.50
2022-10-28T21:09:16.582Z,13.50
2022-10-28T21:11:44.614Z,13.50
2022-10-28T21:14:11.462Z,13.50
2022-10-28T21:16:38.399Z,13.40
2022-10-28T21:19:05.142Z,13.40
2022-10-28T21:21:31.916Z,13.40
2022-10-28T21:23:58.830Z,13.40
2022-10-28T21:26:27.311Z,13.40
2022-10-28T21:28:57.906Z,13.40
2022-10-28T21:31:25.061Z,13.40
2022-10-28T21:33:52.154Z,13.40
2022-10-28T21:36:20.359Z,13.40
2022-10-28T21:38:47.495Z,13.50
2022-10-28T21:41:20.439Z,13.50
2022-10-28T21:43:48.179Z,13.50
2022-10-28T21:46:16.041Z,13.50
2022-10-28T21:48:42.802Z,13.40
2022-10-28T21:51:14.377Z,13.40
2022-10-28T21:53:42.515Z,13.40
2022-10-28T21:56:17.162Z,13.40
2022-10-28T22:01:40.529Z,13.40
2022-10-28T22:04:07.567Z,13.40
2022-10-28T22:06:34.372Z,13.40
2022-10-28T22:09:01.538Z,13.40
2022-10-28T22:11:28.576Z,13.40
2022-10-28T22:13:59.285Z,13.30
2022-10-28T22:16:26.792Z,13.30
2022-10-28T22:18:53.886Z,13.30
2022-10-28T22:21:22.410Z,13.20
2022-10-28T22:23:49.770Z,13.30
2022-10-28T22:26:18.627Z,13.30
2022-10-28T22:28:45.878Z,13.20
2022-10-28T22:31:13.859Z,13.20
2022-10-28T22:33:41.447Z,13.20
2022-10-28T22:36:09.662Z,13.20
2022-10-28T22:38:36.824Z,13.20
2022-10-28T22:41:30.162Z,13.20
2022-10-28T22:43:58.025Z,13.20
2022-10-28T22:46:27.402Z,13.20
2022-10-28T22:48:54.271Z,13.20
2022-10-28T22:51:21.866Z,13.20
2022-10-28T22:53:48.874Z,13.20
2022-10-28T22:56:24.445Z,13.30
2022-10-28T22:58:55.952Z,13.30
2022-10-28T23:01:23.788Z,13.30
2022-10-28T23:03:51.585Z,13.20
2022-10-28T23:06:20.082Z,13.30
2022-10-28T23:08:47.428Z,13.20
2022-10-28T23:11:15.322Z,13.20
2022-10-28T23:13:42.229Z,13.30
2022-10-28T23:16:10.063Z,13.20
2022-10-28T23:18:37.213Z,13.20
2022-10-28T23:21:05.089Z,13.10
2022-10-28T23:23:32.019Z,13.10
2022-10-28T23:25:58.863Z,13.20
2022-10-28T23:28:25.850Z,13.20
2022-10-28T23:30:52.963Z,13.20
2022-10-28T23:33:19.795Z,13.20
2022-10-28T23:35:53.616Z,13.20
2022-10-28T23:38:20.414Z,13.10
2022-10-28T23:40:59.642Z,13.20
2022-10-28T23:43:27.278Z,13.20
2022-10-28T23:45:54.152Z,13.10
2022-10-28T23:48:21.090Z,13.20
2022-10-28T23:50:48.224Z,13.20
2022-10-28T23:53:15.388Z,13.20
2022-10-28T23:55:47.825Z,13.20
2022-10-28T23:58:15.665Z,13.10
